createdAt,value
2018-03-27T00:00:29.453Z,1005.41
2018-03-27T00:01:29.425Z,1005.46
2018-03-27T00:02:29.395Z,1005.45
2018-03-27T00:03:29.367Z,1005.47
2018-03-27T00:04:29.340Z,1005.43
2018-03-27T00:05:29.310Z,1005.44
2018-03-27T00:06:29.281Z,1005.44
2018-03-27T00:07:29.251Z,1005.42
2018-03-27T00:08:29.223Z,1005.44
2018-03-27T00:09:29.196Z,1005.41
2018-03-27T00:10:29.165Z,1005.45
2018-03-27T00:11:29.137Z,1005.42
2018-03-27T00:12:29.108Z,1005.46
2018-03-27T00:13:29.077Z,1005.44
2018-03-27T00:14:29.053Z,1005.44
2018-03-27T00:15:29.021Z,1005.44
2018-03-27T00:16:29.008Z,1005.46
2018-03-27T00:17:28.962Z,1005.45
2018-03-27T00:18:28.933Z,1005.48
2018-03-27T00:19:28.904Z,1005.46
2018-03-27T00:20:28.880Z,1005.45
2018-03-27T00:21:28.847Z,1005.43
2018-03-27T00:22:28.819Z,1005.46
2018-03-27T00:23:28.790Z,1005.44
2018-03-27T00:24:28.761Z,1005.41
2018-03-27T00:25:28.732Z,1005.43
2018-03-27T00:26:28.702Z,1005.4
2018-03-27T00:27:28.673Z,1005.43
2018-03-27T00:28:28.644Z,1005.43
2018-03-27T00:29:28.615Z,1005.42
2018-03-27T00:30:28.587Z,1005.4
2018-03-27T00:31:28.557Z,1005.4
2018-03-27T00:32:28.526Z,1005.37
2018-03-27T00:33:28.499Z,1005.38
2018-03-27T00:34:28.469Z,1005.4
2018-03-27T00:35:28.439Z,1005.4
2018-03-27T00:36:28.410Z,1005.37
2018-03-27T00:37:28.382Z,1005.4
2018-03-27T00:38:28.353Z,1005.38
2018-03-27T00:39:28.323Z,1005.44
2018-03-27T00:40:28.294Z,1005.37
2018-03-27T00:41:28.265Z,1005.34
2018-03-27T00:42:28.237Z,1005.38
2018-03-27T00:43:28.206Z,1005.37
2018-03-27T00:44:28.178Z,1005.35
2018-03-27T00:45:28.148Z,1005.37
2018-03-27T00:46:28.120Z,1005.39
2018-03-27T00:47:28.091Z,1005.38
2018-03-27T00:48:28.061Z,1005.36
2018-03-27T00:49:28.032Z,1005.4
2018-03-27T00:50:28.008Z,1005.43
2018-03-27T00:51:27.975Z,1005.41
2018-03-27T00:52:27.945Z,1005.4
2018-03-27T00:53:27.917Z,1005.43
2018-03-27T00:54:27.888Z,1005.41
2018-03-27T00:55:27.863Z,1005.45
2018-03-27T00:56:27.829Z,1005.39
2018-03-27T00:57:27.800Z,1005.41
2018-03-27T00:58:27.772Z,1005.36
2018-03-27T00:59:27.743Z,1005.33
2018-03-27T01:00:27.714Z,1005.35
2018-03-27T01:01:27.686Z,1005.3
2018-03-27T01:02:27.657Z,1005.3
2018-03-27T01:03:27.629Z,1005.31
2018-03-27T01:04:27.600Z,1005.32
2018-03-27T01:05:27.573Z,1005.29
2018-03-27T01:06:27.543Z,1005.26
2018-03-27T01:07:27.513Z,1005.27
2018-03-27T01:08:27.485Z,1005.26
2018-03-27T01:09:27.455Z,1005.26
2018-03-27T01:10:27.428Z,1005.24
2018-03-27T01:11:27.398Z,1005.24
2018-03-27T01:12:27.368Z,1005.21
2018-03-27T01:13:27.342Z,1005.17
2018-03-27T01:14:27.311Z,1005.2
2018-03-27T01:15:27.281Z,1005.17
2018-03-27T01:16:27.259Z,1005.15
2018-03-27T01:17:27.223Z,1005.15
2018-03-27T01:18:27.195Z,1005.15
2018-03-27T01:19:27.165Z,1005.17
2018-03-27T01:20:27.136Z,1005.19
2018-03-27T01:21:27.108Z,1005.16
2018-03-27T01:22:27.078Z,1005.13
2018-03-27T01:23:27.048Z,1005.09
2018-03-27T01:24:27.019Z,1005.14
2018-03-27T01:25:26.989Z,1005.14
2018-03-27T01:26:26.960Z,1005.12
2018-03-27T01:27:26.932Z,1005.1
2018-03-27T01:28:26.902Z,1005.1
2018-03-27T01:29:26.874Z,1005.08
2018-03-27T01:30:26.848Z,1005.05
2018-03-27T01:31:26.814Z,1005.03
2018-03-27T01:32:26.786Z,1005
2018-03-27T01:33:26.756Z,1005
2018-03-27T01:34:26.725Z,1005.03
2018-03-27T01:35:26.701Z,1005.02
2018-03-27T01:36:26.668Z,1005.03
2018-03-27T01:37:26.637Z,1005.03
2018-03-27T01:38:26.609Z,1004.99
2018-03-27T01:39:26.580Z,1004.98
2018-03-27T01:40:26.550Z,1004.98
2018-03-27T01:41:26.521Z,1004.98
2018-03-27T01:42:26.491Z,1004.98
2018-03-27T01:43:26.462Z,1005.01
2018-03-27T01:44:26.431Z,1004.97
2018-03-27T01:45:26.402Z,1004.95
2018-03-27T01:46:26.378Z,1004.95
2018-03-27T01:47:26.343Z,1004.98
2018-03-27T01:48:26.314Z,1004.98
2018-03-27T01:49:26.286Z,1004.96
2018-03-27T01:50:26.256Z,1004.96
2018-03-27T01:51:26.226Z,1004.92
2018-03-27T01:52:26.195Z,1004.92
2018-03-27T01:53:26.166Z,1004.9
2018-03-27T01:54:26.140Z,1004.89
2018-03-27T01:55:26.108Z,1004.88
2018-03-27T01:56:26.088Z,1004.9
2018-03-27T01:57:26.049Z,1004.89
2018-03-27T01:58:26.020Z,1004.89
2018-03-27T01:59:25.995Z,1004.9
2018-03-27T02:00:25.971Z,1004.9
2018-03-27T02:01:25.931Z,1004.87
2018-03-27T02:02:25.903Z,1004.85
2018-03-27T02:03:25.872Z,1004.9
2018-03-27T02:04:25.844Z,1004.85
2018-03-27T02:05:25.813Z,1004.85
2018-03-27T02:06:25.784Z,1004.84
2018-03-27T02:07:25.754Z,1004.87
2018-03-27T02:08:25.724Z,1004.83
2018-03-27T02:09:25.696Z,1004.85
2018-03-27T02:10:25.666Z,1004.84
2018-03-27T02:11:25.637Z,1004.82
2018-03-27T02:12:25.607Z,1004.81
2018-03-27T02:13:25.579Z,1004.84
2018-03-27T02:14:25.548Z,1004.87
2018-03-27T02:15:25.519Z,1004.82
2018-03-27T02:16:25.490Z,1004.79
2018-03-27T02:17:25.462Z,1004.83
2018-03-27T02:18:25.435Z,1004.77
2018-03-27T02:19:25.411Z,1004.78
2018-03-27T02:20:25.373Z,1004.82
2018-03-27T02:21:25.342Z,1004.82
2018-03-27T02:22:25.418Z,1004.82
2018-03-27T02:23:25.285Z,1004.8
2018-03-27T02:24:25.259Z,1004.84
2018-03-27T02:25:25.226Z,1004.86
2018-03-27T02:26:25.197Z,1004.86
2018-03-27T02:27:25.168Z,1004.84
2018-03-27T02:28:25.139Z,1004.89
2018-03-27T02:29:25.113Z,1004.86
2018-03-27T02:30:25.080Z,1004.84
2018-03-27T02:31:25.051Z,1004.84
2018-03-27T02:32:25.022Z,1004.86
2018-03-27T02:33:24.992Z,1004.85
2018-03-27T02:34:24.967Z,1004.83
2018-03-27T02:35:24.935Z,1004.86
2018-03-27T02:36:24.905Z,1004.84
2018-03-27T02:37:24.876Z,1004.83
2018-03-27T02:38:24.848Z,1004.83
2018-03-27T02:39:24.817Z,1004.82
2018-03-27T02:40:24.789Z,1004.81
2018-03-27T02:41:24.761Z,1004.8
2018-03-27T02:42:24.733Z,1004.82
2018-03-27T02:43:24.701Z,1004.82
2018-03-27T02:44:24.671Z,1004.78
2018-03-27T02:45:24.644Z,1004.81
2018-03-27T02:46:24.617Z,1004.79
2018-03-27T02:47:24.588Z,1004.77
2018-03-27T02:48:24.555Z,1004.75
2018-03-27T02:49:24.526Z,1004.76
2018-03-27T02:50:24.496Z,1004.76
2018-03-27T02:51:24.469Z,1004.74
2018-03-27T02:52:24.438Z,1004.75
2018-03-27T02:53:24.409Z,1004.74
2018-03-27T02:54:24.378Z,1004.72
2018-03-27T02:55:24.350Z,1004.73
2018-03-27T02:56:24.328Z,1004.72
2018-03-27T02:57:24.297Z,1004.67
2018-03-27T02:58:24.262Z,1004.71
2018-03-27T02:59:24.233Z,1004.7
2018-03-27T03:00:24.205Z,1004.7
2018-03-27T03:01:24.175Z,1004.68
2018-03-27T03:02:24.145Z,1004.71
2018-03-27T03:03:24.116Z,1004.7
2018-03-27T03:04:24.086Z,1004.67
2018-03-27T03:05:24.056Z,1004.73
2018-03-27T03:06:24.027Z,1004.69
2018-03-27T03:07:23.996Z,1004.69
2018-03-27T03:08:23.967Z,1004.69
2018-03-27T03:09:23.938Z,1004.68
2018-03-27T03:10:23.908Z,1004.68
2018-03-27T03:11:23.878Z,1004.68
2018-03-27T03:12:23.848Z,1004.7
2018-03-27T03:13:23.818Z,1004.69
2018-03-27T03:14:23.793Z,1004.67
2018-03-27T03:15:23.789Z,1004.7
2018-03-27T03:16:23.728Z,1004.67
2018-03-27T03:17:23.700Z,1004.69
2018-03-27T03:18:23.671Z,1004.67
2018-03-27T03:19:23.642Z,1004.7
2018-03-27T03:20:23.618Z,1004.71
2018-03-27T03:21:23.582Z,1004.72
2018-03-27T03:22:23.553Z,1004.77
2018-03-27T03:23:23.526Z,1004.72
2018-03-27T03:24:23.492Z,1004.73
2018-03-27T03:25:23.464Z,1004.69
2018-03-27T03:26:23.433Z,1004.65
2018-03-27T03:27:23.404Z,1004.69
2018-03-27T03:28:23.405Z,1004.67
2018-03-27T03:29:23.344Z,1004.69
2018-03-27T03:30:23.315Z,1004.68
2018-03-27T03:31:23.286Z,1004.67
2018-03-27T03:32:23.256Z,1004.71
2018-03-27T03:33:23.225Z,1004.71
2018-03-27T03:34:23.194Z,1004.66
2018-03-27T03:35:23.166Z,1004.66
2018-03-27T03:36:23.140Z,1004.67
2018-03-27T03:37:23.107Z,1004.65
2018-03-27T03:38:23.076Z,1004.67
2018-03-27T03:39:23.047Z,1004.69
2018-03-27T03:40:23.018Z,1004.68
2018-03-27T03:41:22.988Z,1004.68
2018-03-27T03:42:22.966Z,1004.69
2018-03-27T03:43:22.928Z,1004.68
2018-03-27T03:44:22.899Z,1004.7
2018-03-27T03:45:22.869Z,1004.72
2018-03-27T03:46:22.837Z,1004.7
2018-03-27T03:47:22.807Z,1004.74
2018-03-27T03:48:22.778Z,1004.76
2018-03-27T03:49:22.749Z,1004.74
2018-03-27T03:50:22.718Z,1004.74
2018-03-27T03:51:22.689Z,1004.75
2018-03-27T03:52:22.663Z,1004.74
2018-03-27T03:53:22.629Z,1004.75
2018-03-27T03:54:22.600Z,1004.77
2018-03-27T03:55:22.570Z,1004.75
2018-03-27T03:56:22.539Z,1004.7
2018-03-27T03:57:22.509Z,1004.7
2018-03-27T03:58:22.480Z,1004.68
2018-03-27T03:59:22.451Z,1004.71
2018-03-27T04:00:22.457Z,1004.71
2018-03-27T04:01:22.390Z,1004.69
2018-03-27T04:02:22.361Z,1004.72
2018-03-27T04:03:22.339Z,1004.67
2018-03-27T04:04:22.300Z,1004.68
2018-03-27T04:05:22.275Z,1004.68
2018-03-27T04:06:22.241Z,1004.67
2018-03-27T04:07:22.210Z,1004.69
2018-03-27T04:08:22.181Z,1004.69
2018-03-27T04:09:22.152Z,1004.74
2018-03-27T04:10:22.121Z,1004.68
2018-03-27T04:11:22.134Z,1004.68
2018-03-27T04:12:22.065Z,1004.67
2018-03-27T04:13:22.040Z,1004.68
2018-03-27T04:14:22.002Z,1004.67
2018-03-27T04:15:22.009Z,1004.69
2018-03-27T04:16:21.942Z,1004.68
2018-03-27T04:17:21.912Z,1004.74
2018-03-27T04:18:21.881Z,1004.68
2018-03-27T04:19:21.852Z,1004.75
2018-03-27T04:20:21.825Z,1004.75
2018-03-27T04:21:21.793Z,1004.71
2018-03-27T04:22:21.761Z,1004.7
2018-03-27T04:23:21.737Z,1004.71
2018-03-27T04:24:21.703Z,1004.69
2018-03-27T04:25:21.685Z,1004.72
2018-03-27T04:26:21.644Z,1004.74
2018-03-27T04:27:21.612Z,1004.75
2018-03-27T04:28:21.583Z,1004.73
2018-03-27T04:29:21.553Z,1004.69
2018-03-27T04:30:21.523Z,1004.7
2018-03-27T04:31:21.492Z,1004.65
2018-03-27T04:32:21.462Z,1004.65
2018-03-27T04:33:21.432Z,1004.7
2018-03-27T04:34:21.402Z,1004.66
2018-03-27T04:35:21.373Z,1004.65
2018-03-27T04:36:21.342Z,1004.65
2018-03-27T04:37:21.312Z,1004.65
2018-03-27T04:38:21.282Z,1004.65
2018-03-27T04:39:21.263Z,1004.64
2018-03-27T04:40:21.221Z,1004.65
2018-03-27T04:41:21.192Z,1004.62
2018-03-27T04:42:21.161Z,1004.6
2018-03-27T04:43:21.133Z,1004.64
2018-03-27T04:44:21.100Z,1004.63
2018-03-27T04:45:21.071Z,1004.62
2018-03-27T04:46:21.042Z,1004.62
2018-03-27T04:47:21.011Z,1004.58
2018-03-27T04:48:20.980Z,1004.6
2018-03-27T04:49:20.951Z,1004.61
2018-03-27T04:50:20.921Z,1004.59
2018-03-27T04:51:20.890Z,1004.6
2018-03-27T04:52:20.861Z,1004.56
2018-03-27T04:53:20.927Z,1004.59
2018-03-27T04:54:20.804Z,1004.6
2018-03-27T04:55:20.847Z,1004.62
2018-03-27T04:56:20.740Z,1004.58
2018-03-27T04:57:20.709Z,1004.58
2018-03-27T04:58:20.680Z,1004.6
2018-03-27T04:59:20.651Z,1004.57
2018-03-27T05:00:20.619Z,1004.6
2018-03-27T05:01:20.589Z,1004.59
2018-03-27T05:02:20.559Z,1004.58
2018-03-27T05:03:20.528Z,1004.61
2018-03-27T05:04:20.498Z,1004.54
2018-03-27T05:05:20.469Z,1004.52
2018-03-27T05:06:20.438Z,1004.56
2018-03-27T05:07:20.406Z,1004.55
2018-03-27T05:08:20.376Z,1004.53
2018-03-27T05:09:20.346Z,1004.56
2018-03-27T05:10:20.316Z,1004.5
2018-03-27T05:11:20.287Z,1004.48
2018-03-27T05:12:20.257Z,1004.49
2018-03-27T05:13:20.226Z,1004.52
2018-03-27T05:14:20.195Z,1004.53
2018-03-27T05:15:20.164Z,1004.55
2018-03-27T05:16:20.136Z,1004.53
2018-03-27T05:17:20.104Z,1004.53
2018-03-27T05:18:20.078Z,1004.5
2018-03-27T05:19:20.045Z,1004.53
2018-03-27T05:20:20.014Z,1004.52
2018-03-27T05:21:19.985Z,1004.5
2018-03-27T05:22:19.953Z,1004.52
2018-03-27T05:23:19.923Z,1004.5
2018-03-27T05:24:19.893Z,1004.49
2018-03-27T05:25:19.863Z,1004.43
2018-03-27T05:26:19.833Z,1004.48
2018-03-27T05:27:19.803Z,1004.47
2018-03-27T05:28:19.770Z,1004.47
2018-03-27T05:29:19.741Z,1004.44
2018-03-27T05:30:19.712Z,1004.45
2018-03-27T05:31:19.680Z,1004.45
2018-03-27T05:32:19.651Z,1004.45
2018-03-27T05:33:19.621Z,1004.4
2018-03-27T05:34:19.590Z,1004.43
2018-03-27T05:35:19.562Z,1004.4
2018-03-27T05:36:19.529Z,1004.4
2018-03-27T05:37:19.498Z,1004.43
2018-03-27T05:38:19.469Z,1004.42
2018-03-27T05:39:19.441Z,1004.42
2018-03-27T05:40:19.408Z,1004.39
2018-03-27T05:41:19.378Z,1004.4
2018-03-27T05:42:19.356Z,1004.4
2018-03-27T05:43:19.317Z,1004.42
2018-03-27T05:44:19.292Z,1004.38
2018-03-27T05:45:19.257Z,1004.37
2018-03-27T05:46:19.224Z,1004.41
2018-03-27T05:47:19.195Z,1004.41
2018-03-27T05:48:19.167Z,1004.41
2018-03-27T05:49:19.135Z,1004.4
2018-03-27T05:50:19.104Z,1004.44
2018-03-27T05:51:19.074Z,1004.41
2018-03-27T05:52:19.044Z,1004.38
2018-03-27T05:53:19.012Z,1004.38
2018-03-27T05:54:18.984Z,1004.38
2018-03-27T05:55:18.954Z,1004.37
2018-03-27T05:56:18.924Z,1004.37
2018-03-27T05:57:18.895Z,1004.39
2018-03-27T05:58:18.863Z,1004.37
2018-03-27T05:59:18.936Z,1004.38
2018-03-27T06:00:18.812Z,1004.41
2018-03-27T06:01:18.771Z,1004.38
2018-03-27T06:02:18.741Z,1004.4
2018-03-27T06:03:18.711Z,1004.42
2018-03-27T06:04:18.683Z,1004.42
2018-03-27T06:05:18.658Z,1004.43
2018-03-27T06:06:18.620Z,1004.43
2018-03-27T06:07:18.591Z,1004.41
2018-03-27T06:08:18.560Z,1004.43
2018-03-27T06:09:18.530Z,1004.41
2018-03-27T06:10:18.500Z,1004.39
2018-03-27T06:11:18.484Z,1004.39
2018-03-27T06:12:18.439Z,1004.38
2018-03-27T06:13:18.409Z,1004.38
2018-03-27T06:14:18.380Z,1004.43
2018-03-27T06:15:18.352Z,1004.43
2018-03-27T06:16:18.320Z,1004.38
2018-03-27T06:17:18.291Z,1004.4
2018-03-27T06:18:18.262Z,1004.35
2018-03-27T06:19:18.230Z,1004.31
2018-03-27T06:20:18.202Z,1004.37
2018-03-27T06:21:18.173Z,1004.38
2018-03-27T06:22:18.142Z,1004.41
2018-03-27T06:23:18.113Z,1004.38
2018-03-27T06:24:18.083Z,1004.39
2018-03-27T06:25:18.057Z,1004.4
2018-03-27T06:26:18.125Z,1004.38
2018-03-27T06:27:17.996Z,1004.37
2018-03-27T06:28:17.968Z,1004.38
2018-03-27T06:29:17.937Z,1004.31
2018-03-27T06:30:17.907Z,1004.34
2018-03-27T06:31:17.879Z,1004.35
2018-03-27T06:32:17.849Z,1004.29
2018-03-27T06:33:17.823Z,1004.34
2018-03-27T06:34:17.792Z,1004.3
2018-03-27T06:35:17.764Z,1004.33
2018-03-27T06:36:17.735Z,1004.27
2018-03-27T06:37:17.716Z,1004.28
2018-03-27T06:38:17.675Z,1004.28
2018-03-27T06:39:17.649Z,1004.28
2018-03-27T06:40:17.620Z,1004.28
2018-03-27T06:41:17.593Z,1004.29
2018-03-27T06:42:17.626Z,1004.31
2018-03-27T06:43:17.534Z,1004.25
2018-03-27T06:44:17.506Z,1004.27
2018-03-27T06:45:17.478Z,1004.26
2018-03-27T06:46:17.451Z,1004.22
2018-03-27T06:47:17.422Z,1004.28
2018-03-27T06:48:17.394Z,1004.25
2018-03-27T06:49:17.369Z,1004.24
2018-03-27T06:50:17.341Z,1004.19
2018-03-27T06:51:17.309Z,1004.22
2018-03-27T06:52:17.284Z,1004.16
2018-03-27T06:53:17.253Z,1004.18
2018-03-27T06:54:17.229Z,1004.18
2018-03-27T06:55:17.209Z,1004.15
2018-03-27T06:56:17.171Z,1004.13
2018-03-27T06:57:17.142Z,1004.07
2018-03-27T06:58:17.116Z,1004.1
2018-03-27T06:59:17.088Z,1004.07
2018-03-27T07:00:17.060Z,1004.05
2018-03-27T07:01:17.067Z,1004.05
2018-03-27T07:02:17.005Z,1004.03
2018-03-27T07:03:17.001Z,1004.04
2018-03-27T07:04:16.964Z,1004
2018-03-27T07:05:17.047Z,1004.03
2018-03-27T07:06:16.894Z,1004.04
2018-03-27T07:07:16.887Z,1004
2018-03-27T07:08:16.877Z,1004
2018-03-27T07:09:16.813Z,1003.97
2018-03-27T07:10:16.785Z,1003.97
2018-03-27T07:11:16.760Z,1003.97
2018-03-27T07:12:16.802Z,1003.96
2018-03-27T07:13:16.739Z,1003.96
2018-03-27T07:14:16.687Z,1003.92
2018-03-27T07:15:16.649Z,1003.93
2018-03-27T07:16:16.623Z,1003.9
2018-03-27T07:17:16.596Z,1003.95
2018-03-27T07:18:16.594Z,1003.91
2018-03-27T07:19:16.549Z,1003.88
2018-03-27T07:20:16.518Z,1003.89
2018-03-27T07:21:16.531Z,1003.86
2018-03-27T07:22:16.460Z,1003.85
2018-03-27T07:23:16.435Z,1003.83
2018-03-27T07:24:16.409Z,1003.83
2018-03-27T07:25:16.383Z,1003.82
2018-03-27T07:26:16.358Z,1003.75
2018-03-27T07:27:16.331Z,1003.73
2018-03-27T07:28:16.304Z,1003.74
2018-03-27T07:29:16.278Z,1003.73
2018-03-27T07:30:16.254Z,1003.69
2018-03-27T07:31:16.227Z,1003.68
2018-03-27T07:32:16.200Z,1003.7
2018-03-27T07:33:16.173Z,1003.68
2018-03-27T07:34:16.148Z,1003.68
2018-03-27T07:35:16.121Z,1003.66
2018-03-27T07:36:16.099Z,1003.65
2018-03-27T07:37:16.071Z,1003.65
2018-03-27T07:38:16.055Z,1003.69
2018-03-27T07:39:16.027Z,1003.62
2018-03-27T07:40:15.994Z,1003.61
2018-03-27T07:41:15.969Z,1003.65
2018-03-27T07:42:15.943Z,1003.62
2018-03-27T07:43:16.030Z,1003.65
2018-03-27T07:44:15.913Z,1003.6
2018-03-27T07:45:15.871Z,1003.65
2018-03-27T07:46:15.842Z,1003.65
2018-03-27T07:47:15.816Z,1003.6
2018-03-27T07:48:15.791Z,1003.63
2018-03-27T07:49:15.767Z,1003.64
2018-03-27T07:50:15.741Z,1003.66
2018-03-27T07:51:15.715Z,1003.6
2018-03-27T07:52:15.691Z,1003.61
2018-03-27T07:53:15.666Z,1003.59
2018-03-27T07:54:15.639Z,1003.56
2018-03-27T07:55:15.615Z,1003.5
2018-03-27T07:56:15.591Z,1003.47
2018-03-27T07:57:15.565Z,1003.54
2018-03-27T07:58:15.552Z,1003.49
2018-03-27T07:59:15.515Z,1003.43
2018-03-27T08:00:15.492Z,1003.42
2018-03-27T08:01:15.466Z,1003.42
2018-03-27T08:02:15.443Z,1003.41
2018-03-27T08:03:15.418Z,1003.4
2018-03-27T08:04:15.393Z,1003.41
2018-03-27T08:05:15.368Z,1003.42
2018-03-27T08:06:15.347Z,1003.4
2018-03-27T08:07:15.322Z,1003.35
2018-03-27T08:08:15.297Z,1003.33
2018-03-27T08:09:15.273Z,1003.37
2018-03-27T08:10:15.249Z,1003.34
2018-03-27T08:11:15.263Z,1003.3
2018-03-27T08:12:15.200Z,1003.33
2018-03-27T08:13:15.197Z,1003.24
2018-03-27T08:14:15.152Z,1003.33
2018-03-27T08:15:15.128Z,1003.29
2018-03-27T08:16:15.104Z,1003.27
2018-03-27T08:17:15.080Z,1003.28
2018-03-27T08:18:15.055Z,1003.2
2018-03-27T08:19:15.031Z,1003.2
2018-03-27T08:20:15.006Z,1003.19
2018-03-27T08:21:14.981Z,1003.21
2018-03-27T08:22:14.957Z,1003.18
2018-03-27T08:23:15.033Z,1003.15
2018-03-27T08:24:14.986Z,1003.11
2018-03-27T08:25:14.890Z,1003.09
2018-03-27T08:26:14.860Z,1003.09
2018-03-27T08:27:14.834Z,1003.06
2018-03-27T08:28:14.810Z,1003.07
2018-03-27T08:29:14.839Z,1003.03
2018-03-27T08:30:14.762Z,1003.03
2018-03-27T08:31:14.735Z,1003.01
2018-03-27T08:32:14.711Z,1002.96
2018-03-27T08:33:14.686Z,1002.95
2018-03-27T08:34:14.659Z,1002.91
2018-03-27T08:35:14.636Z,1002.98
2018-03-27T08:36:14.653Z,1002.92
2018-03-27T08:37:14.587Z,1002.9
2018-03-27T08:38:14.563Z,1002.87
2018-03-27T08:39:14.537Z,1002.89
2018-03-27T08:40:14.514Z,1002.87
2018-03-27T08:41:14.486Z,1002.83
2018-03-27T08:42:14.462Z,1002.86
2018-03-27T08:43:14.438Z,1002.84
2018-03-27T08:44:14.413Z,1002.83
2018-03-27T08:45:14.386Z,1002.8
2018-03-27T08:46:14.361Z,1002.79
2018-03-27T08:47:14.337Z,1002.79
2018-03-27T08:48:14.314Z,1002.71
2018-03-27T08:49:14.286Z,1002.77
2018-03-27T08:50:14.262Z,1002.71
2018-03-27T08:51:14.237Z,1002.74
2018-03-27T08:52:14.211Z,1002.71
2018-03-27T08:53:14.187Z,1002.67
2018-03-27T08:54:14.162Z,1002.71
2018-03-27T08:55:14.137Z,1002.68
2018-03-27T08:56:14.112Z,1002.67
2018-03-27T08:57:14.085Z,1002.69
2018-03-27T08:58:14.061Z,1002.67
2018-03-27T08:59:14.037Z,1002.69
2018-03-27T09:00:14.012Z,1002.72
2018-03-27T09:01:14.024Z,1002.67
2018-03-27T09:02:14.206Z,1002.66
2018-03-27T09:03:14.086Z,1002.64
2018-03-27T09:04:13.912Z,1002.68
2018-03-27T09:05:13.982Z,1002.69
2018-03-27T09:06:13.863Z,1002.66
2018-03-27T09:07:13.838Z,1002.64
2018-03-27T09:08:13.816Z,1002.66
2018-03-27T09:09:13.788Z,1002.65
2018-03-27T09:10:13.762Z,1002.6
2018-03-27T09:11:13.738Z,1002.6
2018-03-27T09:12:13.730Z,1002.55
2018-03-27T09:13:13.688Z,1002.57
2018-03-27T09:14:14.049Z,1002.53
2018-03-27T09:15:13.673Z,1002.56
2018-03-27T09:16:13.614Z,1002.5
2018-03-27T09:17:13.590Z,1002.55
2018-03-27T09:18:13.564Z,1002.57
2018-03-27T09:19:13.539Z,1002.57
2018-03-27T09:20:13.515Z,1002.55
2018-03-27T09:21:13.491Z,1002.54
2018-03-27T09:22:13.467Z,1002.52
2018-03-27T09:23:13.441Z,1002.52
2018-03-27T09:24:13.416Z,1002.53
2018-03-27T09:25:13.393Z,1002.5
2018-03-27T09:26:13.369Z,1002.43
2018-03-27T09:27:13.344Z,1002.44
2018-03-27T09:28:13.320Z,1002.44
2018-03-27T09:29:13.294Z,1002.42
2018-03-27T09:30:13.276Z,1002.42
2018-03-27T09:31:13.407Z,1002.43
2018-03-27T09:32:13.222Z,1002.44
2018-03-27T09:33:13.197Z,1002.42
2018-03-27T09:34:13.201Z,1002.4
2018-03-27T09:35:13.214Z,1002.37
2018-03-27T09:36:13.327Z,1002.35
2018-03-27T09:37:13.344Z,1002.38
2018-03-27T09:38:13.227Z,1002.38
2018-03-27T09:39:13.052Z,1002.32
2018-03-27T09:40:13.062Z,1002.32
2018-03-27T09:41:13.007Z,1002.28
2018-03-27T09:42:12.979Z,1002.35
2018-03-27T09:43:12.955Z,1002.32
2018-03-27T09:44:12.931Z,1002.31
2018-03-27T09:45:12.916Z,1002.33
2018-03-27T09:46:12.883Z,1002.31
2018-03-27T09:47:12.861Z,1002.3
2018-03-27T09:48:12.836Z,1002.27
2018-03-27T09:49:12.811Z,1002.25
2018-03-27T09:50:12.788Z,1002.3
2018-03-27T09:51:12.764Z,1002.27
2018-03-27T09:52:12.742Z,1002.29
2018-03-27T09:53:12.716Z,1002.29
2018-03-27T09:54:12.693Z,1002.23
2018-03-27T09:55:12.671Z,1002.25
2018-03-27T09:56:12.646Z,1002.22
2018-03-27T09:57:12.625Z,1002.24
2018-03-27T09:58:12.628Z,1002.17
2018-03-27T09:59:12.575Z,1002.18
2018-03-27T10:00:12.552Z,1002.17
2018-03-27T10:01:12.534Z,1002.16
2018-03-27T10:02:12.919Z,1002.14
2018-03-27T10:03:12.481Z,1002.14
2018-03-27T10:04:12.470Z,1002.12
2018-03-27T10:05:12.434Z,1002.07
2018-03-27T10:06:12.411Z,1002.02
2018-03-27T10:07:12.389Z,1001.99
2018-03-27T10:08:12.366Z,1001.96
2018-03-27T10:09:12.350Z,1001.99
2018-03-27T10:10:12.320Z,1002.02
2018-03-27T10:11:12.335Z,1002.01
2018-03-27T10:12:12.278Z,1001.98
2018-03-27T10:13:12.252Z,1002
2018-03-27T10:14:12.230Z,1001.94
2018-03-27T10:15:12.207Z,1001.99
2018-03-27T10:16:12.184Z,1001.93
2018-03-27T10:17:12.162Z,1001.9
2018-03-27T10:18:12.140Z,1001.87
2018-03-27T10:19:12.120Z,1001.91
2018-03-27T10:20:12.094Z,1001.91
2018-03-27T10:21:12.074Z,1001.84
2018-03-27T10:22:12.105Z,1001.83
2018-03-27T10:23:12.031Z,1001.85
2018-03-27T10:24:12.009Z,1001.8
2018-03-27T10:25:11.986Z,1001.81
2018-03-27T10:26:11.965Z,1001.78
2018-03-27T10:27:11.944Z,1001.78
2018-03-27T10:28:11.924Z,1001.76
2018-03-27T10:29:11.902Z,1001.77
2018-03-27T10:30:11.882Z,1001.74
2018-03-27T10:31:11.860Z,1001.74
2018-03-27T10:32:11.841Z,1001.74
2018-03-27T10:33:11.817Z,1001.75
2018-03-27T10:34:11.800Z,1001.73
2018-03-27T10:35:11.776Z,1001.7
2018-03-27T10:36:11.757Z,1001.68
2018-03-27T10:37:11.737Z,1001.66
2018-03-27T10:38:11.714Z,1001.63
2018-03-27T10:39:11.696Z,1001.65
2018-03-27T10:40:11.676Z,1001.56
2018-03-27T10:41:11.656Z,1001.57
2018-03-27T10:42:11.636Z,1001.53
2018-03-27T10:43:11.616Z,1001.58
2018-03-27T10:44:11.599Z,1001.52
2018-03-27T10:45:11.577Z,1001.5
2018-03-27T10:46:11.564Z,1001.48
2018-03-27T10:47:11.540Z,1001.45
2018-03-27T10:48:11.520Z,1001.47
2018-03-27T10:49:11.501Z,1001.46
2018-03-27T10:50:11.482Z,1001.38
2018-03-27T10:51:11.464Z,1001.37
2018-03-27T10:52:11.446Z,1001.36
2018-03-27T10:53:11.424Z,1001.35
2018-03-27T10:54:11.408Z,1001.3
2018-03-27T10:55:11.388Z,1001.3
2018-03-27T10:56:11.367Z,1001.26
2018-03-27T10:57:11.351Z,1001.2
2018-03-27T10:58:11.332Z,1001.24
2018-03-27T10:59:11.313Z,1001.19
2018-03-27T11:00:11.295Z,1001.24
2018-03-27T11:01:11.275Z,1001.22
2018-03-27T11:02:11.309Z,1001.2
2018-03-27T11:03:11.238Z,1001.13
2018-03-27T11:04:11.226Z,1001.16
2018-03-27T11:05:11.201Z,1001.13
2018-03-27T11:06:11.184Z,1001.16
2018-03-27T11:07:11.166Z,1001.14
2018-03-27T11:08:11.148Z,1001.13
2018-03-27T11:09:11.133Z,1001.17
2018-03-27T11:10:11.112Z,1001.14
2018-03-27T11:11:11.092Z,1001.17
2018-03-27T11:12:11.076Z,1001.16
2018-03-27T11:13:11.057Z,1001.15
2018-03-27T11:14:11.040Z,1001.07
2018-03-27T11:15:11.021Z,1001.06
2018-03-27T11:16:11.004Z,1001.03
2018-03-27T11:17:10.989Z,1000.97
2018-03-27T11:18:10.968Z,1000.96
2018-03-27T11:19:10.952Z,1000.96
2018-03-27T11:20:10.935Z,1000.96
2018-03-27T11:21:10.916Z,1000.94
2018-03-27T11:22:10.899Z,1000.92
2018-03-27T11:23:10.883Z,1000.95
2018-03-27T11:24:10.864Z,1000.95
2018-03-27T11:25:10.847Z,1000.9
2018-03-27T11:26:10.830Z,1000.89
2018-03-27T11:27:10.811Z,1000.9
2018-03-27T11:28:10.796Z,1000.84
2018-03-27T11:29:10.779Z,1000.86
2018-03-27T11:30:10.757Z,1000.84
2018-03-27T11:31:10.739Z,1000.79
2018-03-27T11:32:10.722Z,1000.76
2018-03-27T11:33:10.703Z,1000.74
2018-03-27T11:34:10.684Z,1000.73
2018-03-27T11:35:10.667Z,1000.69
2018-03-27T11:36:10.648Z,1000.72
2018-03-27T11:37:10.630Z,1000.66
2018-03-27T11:38:10.611Z,1000.68
2018-03-27T11:39:10.593Z,1000.63
2018-03-27T11:40:10.577Z,1000.59
2018-03-27T11:41:10.556Z,1000.54
2018-03-27T11:42:10.537Z,1000.55
2018-03-27T11:43:10.519Z,1000.5
2018-03-27T11:44:10.500Z,1000.48
2018-03-27T11:45:10.481Z,1000.43
2018-03-27T11:46:10.463Z,1000.42
2018-03-27T11:47:10.446Z,1000.4
2018-03-27T11:48:10.427Z,1000.37
2018-03-27T11:49:10.409Z,1000.37
2018-03-27T11:50:10.390Z,1000.32
2018-03-27T11:51:10.371Z,1000.31
2018-03-27T11:52:10.355Z,1000.31
2018-03-27T11:53:10.337Z,1000.27
2018-03-27T11:54:10.320Z,1000.25
2018-03-27T11:55:10.300Z,1000.26
2018-03-27T11:56:10.287Z,1000.26
2018-03-27T11:57:10.265Z,1000.28
2018-03-27T11:58:10.251Z,1000.28
2018-03-27T11:59:10.229Z,1000.27
2018-03-27T12:00:10.213Z,1000.21
2018-03-27T12:01:10.196Z,1000.2
2018-03-27T12:02:10.177Z,1000.22
2018-03-27T12:03:10.160Z,1000.14
2018-03-27T12:04:10.144Z,1000.17
2018-03-27T12:05:10.126Z,1000.18
2018-03-27T12:06:10.108Z,1000.18
2018-03-27T12:07:10.093Z,1000.16
2018-03-27T12:08:10.076Z,1000.15